London, United Kingdom

8:04 AM BST on 六月 24, 2017 (GMT +0100)
Heathrow

天気 に付いての歴史 EGLL - 五月, 2017

Change the Weather History Date:

金曜日, 五月 19, 2017

  Actual Average Record
Temperature  
平均温度 55 °F -  
最高温度 61 °F 65 °F 79 °F (2014)
最低温度 49 °F 50 °F 39 °F (2008)
Degree Days  
暖房度日 10    
Growing Degree Days 5 (Base 50)    
Moisture  
露点温度 47 °F    
Average Humidity 80    
Maximum Humidity 97    
Minimum Humidity 52    
降水確率  
降水確率 0.01 インチ - - ()
海面圧  
海面圧 29.88 インチ    
 
風速 6 Mph ()    
最大風速 17 Mph    
Max Gust Speed 23 Mph    
視程 7.6 マイル    
イベント    
Averages and records for this station are not official NWS values.
T = Trace of Precipitation, MM = Missing Value Source: Averaged Metar Reports

Daily Weather History Graph

Daily Weather History Graph

Search for Another Location

Airport or City:

Trip Planner

Search our weather history database for the weather conditions in past years. The results will help you decide how hot, cold, wet, or windy it might be!

Date:

天文

May. 19, 2017 入り
実時間 5:04 AM BST 8:53 PM BST
常用薄明 4:21 AM BST 9:35 PM BST
航海薄明 3:23 AM BST 10:35 PM BST
天文薄明 1:45 AM BST 12:17 AM BST
2:19 AM BST (5/19) 12:42 PM BST (5/19)
可視光の長さ 17h 13m
可照時間
15h 48m
第 4 四半期, 45% of the Moon is Illuminated
5月 19
第 4 四半期
5月 25
新しい
6月 1
上弦
6月 9
満月
6月 17
第 4 四半期

Hourly Weather History & Observations

時間 (BST) 温度 露点温度 湿度 気圧 視程 Wind Dir 風速 突風の速度 Precip イベント 現在の気象状況
12:00 AM 50 °F 49 °F 95% 29.86 インチ 7 マイル 西北西 5.8 Mph - -
12:20 AM 50.0 °F 48.2 °F 94% 29.86 インチ 6.2 マイル 西北西 6.9 Mph - N/A 小雨
12:50 AM 50.0 °F 48.2 °F 94% 29.86 インチ 6.2 マイル 西 6.9 Mph - N/A 小雨
1:00 AM 50 °F 48 °F 90% 29.86 インチ 16 マイル 西北西 8.1 Mph - - 小雨
1:20 AM 50.0 °F 48.2 °F 94% 29.86 インチ 6.2 マイル 西 8.1 Mph - N/A 小雨
1:50 AM 50.0 °F 48.2 °F 94% 29.83 インチ 6.2 マイル 西北西 6.9 Mph - N/A 小雨
2:00 AM 50 °F 48 °F 89% 29.85 インチ 14 マイル 西北西 6.9 Mph - - 小雨
2:20 AM 50.0 °F 48.2 °F 94% 29.83 インチ 6.2 マイル 西北西 5.8 Mph - N/A 小雨
2:50 AM 50.0 °F 48.2 °F 94% 29.83 インチ 6.2 マイル 西 8.1 Mph - N/A 小雨
3:00 AM 50 °F 49 °F 93% 29.85 インチ 9 マイル 西 6.9 Mph - - 小雨
3:20 AM 50.0 °F 48.2 °F 94% 29.83 インチ 6.2 マイル 西 8.1 Mph - N/A 小雨
3:50 AM 50.0 °F 48.2 °F 94% 29.86 インチ 6.2 マイル 西 5.8 Mph - N/A 小雨
4:00 AM 50 °F 48 °F 90% 29.85 インチ 10 マイル 西 5.8 Mph - - 小雨
4:20 AM 50.0 °F 48.2 °F 94% 29.83 インチ 6.2 マイル 西北西 4.6 Mph - N/A 小雨
4:50 AM 50.0 °F 48.2 °F 94% 29.83 インチ 6.2 マイル 西 4.6 Mph - N/A 小雨
5:00 AM 50 °F 48 °F 91% 29.84 インチ 8 マイル 西 4.6 Mph - - 小雨
5:20 AM 50.0 °F 48.2 °F 94% 29.83 インチ 5.0 マイル 西 5.8 Mph - N/A 小雨
5:50 AM 50.0 °F 48.2 °F 94% 29.83 インチ 5.6 マイル 西 6.9 Mph - N/A  
6:00 AM 49 °F 48 °F 97% 29.84 インチ 7 マイル 西 5.8 Mph - -
6:20 AM 50.0 °F 48.2 °F 94% 29.83 インチ 5.6 マイル 西 6.9 Mph - N/A   だいたい曇
6:50 AM 50.0 °F 48.2 °F 94% 29.83 インチ 4.3 マイル 西 6.9 Mph - N/A  
7:00 AM 50 °F 49 °F 95% 29.85 インチ 6 マイル 西 6.9 Mph - -   もや
7:20 AM 51.8 °F 48.2 °F 88% 29.86 インチ 6.2 マイル 西北西 5.8 Mph - N/A   やや曇
7:50 AM 51.8 °F 48.2 °F 88% 29.86 インチ 6.2 マイル 西北西 6.9 Mph - N/A   だいたい曇
8:00 AM 52 °F 48 °F 83% 29.86 インチ 17 マイル 西北西 6.9 Mph - -   所により曇
8:20 AM 51.8 °F 48.2 °F 88% 29.86 インチ 6.2 マイル 西北西 8.1 Mph - N/A   だいたい曇
8:50 AM 51.8 °F 50.0 °F 94% 29.86 インチ 6.2 マイル 西 9.2 Mph - N/A   だいたい曇
9:00 AM 52 °F 49 °F 87% 29.87 インチ 14 マイル 西 8.1 Mph - -   所により曇
9:20 AM 53.6 °F 50.0 °F 88% 29.86 インチ 6.2 マイル 西 11.5 Mph - N/A   だいたい曇
9:50 AM 53.6 °F 50.0 °F 88% 29.86 インチ 6.2 マイル 西 10.4 Mph - N/A   だいたい曇
10:00 AM 55 °F 50 °F 79% 29.87 インチ 17 マイル 西 10.4 Mph - -   やや曇
10:20 AM 53.6 °F 48.2 °F 82% 29.86 インチ 6.2 マイル 西北西 8.1 Mph - N/A   だいたい曇
10:50 AM 53.6 °F 44.6 °F 72% 29.89 インチ 6.2 マイル 北西 10.4 Mph - N/A   だいたい曇
11:00 AM 53 °F 45 °F 67% 29.89 インチ 19 マイル 北西 9.2 Mph - -   だいたい曇
11:20 AM 55.4 °F 44.6 °F 67% 29.89 インチ 6.2 マイル 北西 8.1 Mph - N/A   やや曇
11:50 AM 55.4 °F 44.6 °F 67% 29.89 インチ 6.2 マイル 北西 9.2 Mph - N/A   だいたい曇
12:00 PM 55 °F 43 °F 55% 29.90 インチ 28 マイル 北西 9.2 Mph - -   だいたい曇
12:20 PM 55.4 °F 46.4 °F 72% 29.89 インチ 6.2 マイル 西北西 9.2 Mph - N/A 小雨
12:50 PM 53.6 °F 48.2 °F 82% 29.89 インチ 6.2 マイル 西北西 6.9 Mph - N/A 小雨
1:00 PM 55 °F 47 °F 65% 29.90 インチ 18 マイル 西北西 6.9 Mph - - にわか雨(弱)
1:20 PM 55.4 °F 46.4 °F 72% 29.89 インチ 6.2 マイル 西北西 4.6 Mph - N/A 小雨
1:50 PM 55.4 °F 48.2 °F 77% 29.89 インチ 6.2 マイル 西 5.8 Mph - N/A 小雨
2:00 PM 56 °F 45 °F 56% 29.91 インチ 25 マイル 西北西 4.6 Mph - -
2:20 PM 55.4 °F 46.4 °F 72% 29.89 インチ 6.2 マイル 変数 3.5 Mph - N/A 小雨
2:50 PM 59.0 °F 46.4 °F 63% 29.89 インチ 6.2 マイル 4.6 Mph - N/A   だいたい曇
3:00 PM 57 °F 44 °F 52% 29.91 インチ 22 マイル 北北西 6.9 Mph - -
3:20 PM 57.2 °F 46.4 °F 67% 29.89 インチ 6.2 マイル 4.6 Mph - N/A   だいたい曇
3:50 PM 57.2 °F 46.4 °F 67% 29.89 インチ 6.2 マイル 変数 2.3 Mph - N/A   所により曇
4:20 PM 57.2 °F 44.6 °F 63% 29.89 インチ 6.2 マイル 変数 4.6 Mph - N/A   だいたい曇
4:50 PM 53.6 °F 48.2 °F 82% 29.89 インチ 6.2 マイル 南西 16.1 Mph - N/A 小雨
5:00 PM 53 °F 45 °F 66% 29.90 インチ 16 マイル 南西 17.3 Mph - - にわか雨(弱)
5:20 PM 51.8 °F 46.4 °F 82% 29.89 インチ 6.2 マイル 変数 4.6 Mph - N/A 小雨
5:50 PM 55.4 °F 46.4 °F 72% 29.89 インチ 6.2 マイル 西南西 6.9 Mph - N/A 小雨
6:00 PM 56 °F 45 °F 57% 29.91 インチ 28 マイル 南西 8.1 Mph - -
6:20 PM 57.2 °F 46.4 °F 67% 29.89 インチ 6.2 マイル 南西 4.6 Mph - N/A   情報なし
6:50 PM 55.4 °F 48.2 °F 77% 29.92 インチ 6.2 マイル 南西 10.4 Mph - N/A   所により曇
7:00 PM 56 °F 47 °F 63% 29.92 インチ 25 マイル 南西 11.5 Mph - -   だいたい曇
7:20 PM 55.4 °F 44.6 °F 67% 29.92 インチ 6.2 マイル 南西 11.5 Mph 23.0 Mph N/A   だいたい曇
7:50 PM 55.4 °F 46.4 °F 72% 29.92 インチ 6.2 マイル 南西 9.2 Mph - N/A   情報なし
8:00 PM 54 °F 43 °F 58% 29.92 インチ 31 マイル 南南西 8.1 Mph - -   やや曇
8:20 PM 53.6 °F 44.6 °F 72% 29.92 インチ 6.2 マイル 南西 6.9 Mph - N/A   情報なし
8:50 PM 51.8 °F 44.6 °F 76% 29.92 インチ 6.2 マイル 南西 6.9 Mph - N/A   情報なし
9:00 PM 52 °F 45 °F 69% 29.94 インチ 31 マイル 南西 5.8 Mph - -   所により曇
9:20 PM 51.8 °F 44.6 °F 76% 29.95 インチ 6.2 マイル 西 4.6 Mph - N/A   情報なし
9:50 PM 53.6 °F 44.6 °F 72% 29.95 インチ 6.2 マイル 変数 3.5 Mph - N/A 小雨
10:00 PM 53 °F 46 °F 69% 29.96 インチ 28 マイル 北西 2.3 Mph - - 小雨
10:20 PM 51.8 °F 46.4 °F 82% 29.95 インチ 6.2 マイル 西北西 4.6 Mph - N/A 小雨
10:50 PM 51.8 °F 46.4 °F 82% 29.95 インチ 6.2 マイル 北西 1.2 Mph - N/A 小雨
11:00 PM 52 °F 47 °F 76% 29.96 インチ 31 マイル 北西 2.3 Mph - - 小雨
11:20 PM 50.0 °F 46.4 °F 87% 29.95 インチ 6.2 マイル 3.5 Mph - N/A   だいたい曇
11:50 PM 50.0 °F 46.4 °F 87% 29.95 インチ 6.2 マイル 西南西 2.3 Mph - N/A   情報なし